createdAt,value
2018-03-25T00:00:39.247Z,31.33
2018-03-25T00:03:16.707Z,34.17
2018-03-25T00:05:43.946Z,37.93
2018-03-25T00:08:10.486Z,30.47
2018-03-25T00:10:37.109Z,29.77
2018-03-25T00:13:19.585Z,41.00
2018-03-25T01:16:43.461Z,29.63
2018-03-25T01:19:09.885Z,33.23
2018-03-25T01:21:36.153Z,34.87
2018-03-25T01:24:09.903Z,33.80
2018-03-25T01:26:36.043Z,35.57
2018-03-25T01:29:02.305Z,41.33
2018-03-25T01:31:29.210Z,36.53
2018-03-25T01:33:55.365Z,33.20
2018-03-25T01:36:21.521Z,38.90
2018-03-25T01:38:47.659Z,38.43
2018-03-25T01:41:13.822Z,31.23
2018-03-25T01:43:40.703Z,35.30
2018-03-25T01:46:06.807Z,28.30
2018-03-25T01:48:32.915Z,32.55
2018-03-25T01:50:59.040Z,32.63
2018-03-25T01:53:25.466Z,40.38
2018-03-25T01:55:51.652Z,40.10
2018-03-25T01:58:17.791Z,34.38
2018-03-25T02:00:44.945Z,35.42
2018-03-25T02:03:11.175Z,45.92
2018-03-25T02:05:37.363Z,41.72
2018-03-25T02:08:03.557Z,44.67
2018-03-25T02:10:30.097Z,40.00
2018-03-25T02:12:56.270Z,37.05
2018-03-25T02:15:22.387Z,38.75
2018-03-25T02:17:48.506Z,35.80
2018-03-25T02:20:14.633Z,31.80
2018-03-25T02:22:40.767Z,39.55
2018-03-25T02:25:06.883Z,44.30
2018-03-25T02:27:33.779Z,42.50
2018-03-25T02:29:59.918Z,37.83
2018-03-25T02:32:26.077Z,39.08
2018-03-25T02:34:52.228Z,33.33
2018-03-25T02:37:18.339Z,36.60
2018-03-25T02:39:44.502Z,39.88
2018-03-25T02:42:10.638Z,41.50
2018-03-25T02:44:36.796Z,40.05
2018-03-25T02:47:02.936Z,38.92
2018-03-25T02:49:29.077Z,35.30
2018-03-25T02:51:55.178Z,34.60
2018-03-25T02:54:21.317Z,38.03
2018-03-25T02:56:47.475Z,33.85
2018-03-25T02:59:14.369Z,33.13
2018-03-25T03:01:41.227Z,31.62
2018-03-25T03:04:07.349Z,33.03
2018-03-25T03:06:33.485Z,34.47
2018-03-25T03:08:59.599Z,31.27
2018-03-25T03:11:25.752Z,29.30
2018-03-25T03:13:51.883Z,39.35
2018-03-25T03:16:18.006Z,31.50
2018-03-25T03:18:44.116Z,40.30
2018-03-25T03:21:10.239Z,40.90
2018-03-25T03:23:36.332Z,37.42
2018-03-25T03:26:02.462Z,34.00
2018-03-25T03:28:28.613Z,34.05
2018-03-25T03:30:55.001Z,37.63
2018-03-25T03:33:21.909Z,41.70
2018-03-25T03:35:48.073Z,36.15
2018-03-25T03:38:14.238Z,44.42
2018-03-25T03:40:40.381Z,42.40
2018-03-25T03:43:06.496Z,36.65
2018-03-25T03:45:32.632Z,35.67
2018-03-25T03:47:58.899Z,31.77
2018-03-25T03:50:25.037Z,41.42
2018-03-25T03:52:57.970Z,41.45
2018-03-25T03:55:24.107Z,37.55
2018-03-25T03:57:50.244Z,30.37
2018-03-25T04:00:16.365Z,35.20
2018-03-25T04:02:42.482Z,38.20
2018-03-25T04:05:08.622Z,33.58
2018-03-25T04:07:35.463Z,41.30
2018-03-25T04:10:01.617Z,39.58
2018-03-25T04:12:27.738Z,45.60
2018-03-25T04:14:53.850Z,35.90
2018-03-25T04:17:19.991Z,33.60
2018-03-25T04:19:46.113Z,39.15
2018-03-25T04:22:12.231Z,33.53
2018-03-25T04:24:38.350Z,34.95
2018-03-25T04:27:05.273Z,31.92
2018-03-25T04:29:31.396Z,33.97
2018-03-25T04:31:57.499Z,34.72
2018-03-25T04:34:23.686Z,39.83
2018-03-25T04:36:49.888Z,30.17
2018-03-25T04:39:16.052Z,36.42
2018-03-25T04:41:42.228Z,45.15
2018-03-25T04:44:08.422Z,35.55
2018-03-25T04:46:34.592Z,31.08
2018-03-25T04:49:00.722Z,33.33
2018-03-25T04:51:26.846Z,38.08
2018-03-25T04:53:52.956Z,34.58
2018-03-25T04:56:19.103Z,38.17
2018-03-25T04:58:45.294Z,33.42
2018-03-25T05:01:11.437Z,45.65
2018-03-25T05:03:37.588Z,33.30
2018-03-25T05:06:03.759Z,36.45
2018-03-25T05:08:29.986Z,36.70
2018-03-25T05:10:56.868Z,49.95
2018-03-25T05:13:23.017Z,29.98
2018-03-25T05:15:49.166Z,42.75
2018-03-25T05:18:15.274Z,35.17
2018-03-25T05:20:41.434Z,33.50
2018-03-25T05:23:07.549Z,39.63
2018-03-25T05:25:33.712Z,40.85
2018-03-25T05:27:59.879Z,35.22
2018-03-25T05:30:25.956Z,44.33
2018-03-25T05:32:52.839Z,38.92
2018-03-25T05:35:19.049Z,35.65
2018-03-25T05:37:45.223Z,36.83
2018-03-25T05:40:11.323Z,39.45
2018-03-25T05:42:37.438Z,32.90
2018-03-25T05:45:03.560Z,39.30
2018-03-25T05:47:29.716Z,37.53
2018-03-25T05:49:55.842Z,34.15
2018-03-25T05:52:21.963Z,41.13
2018-03-25T05:54:48.083Z,39.83
2018-03-25T05:57:14.204Z,35.42
2018-03-25T05:59:40.335Z,34.42
2018-03-25T06:02:06.471Z,34.58
2018-03-25T06:04:32.637Z,45.90
2018-03-25T06:06:58.797Z,39.15
2018-03-25T06:09:24.887Z,45.78
2018-03-25T06:11:51.727Z,34.80
2018-03-25T06:14:17.841Z,41.20
2018-03-25T06:16:43.989Z,34.05
2018-03-25T06:19:13.972Z,47.78
2018-03-25T06:21:42.079Z,39.60
2018-03-25T06:24:08.327Z,45.05
2018-03-25T06:26:34.473Z,47.83
2018-03-25T06:29:00.609Z,34.20
2018-03-25T06:31:26.825Z,33.85
2018-03-25T06:33:52.955Z,36.10
2018-03-25T06:36:19.091Z,39.78
2018-03-25T06:38:45.272Z,35.63
2018-03-25T06:41:11.394Z,43.95
2018-03-25T06:43:37.502Z,41.13
2018-03-25T06:46:06.449Z,37.30
2018-03-25T06:48:34.464Z,44.72
2018-03-25T06:51:15.162Z,50.35
2018-03-25T06:53:41.308Z,40.25
2018-03-25T06:56:07.436Z,40.43
2018-03-25T06:58:33.615Z,49.88
2018-03-25T07:01:15.682Z,44.17
2018-03-25T07:03:44.888Z,47.95
2018-03-25T07:06:11.616Z,50.97
2018-03-25T07:08:38.643Z,45.12
2018-03-25T07:11:12.426Z,41.57
2018-03-25T07:13:45.889Z,38.80
2018-03-25T07:16:15.753Z,48.43
2018-03-25T07:18:45.013Z,49.07
2018-03-25T07:39:17.338Z,40.40
2018-03-25T07:41:43.906Z,38.50
2018-03-25T07:44:10.346Z,36.70
2018-03-25T07:46:36.688Z,35.60
2018-03-25T07:49:02.912Z,40.80
2018-03-25T07:51:46.065Z,44.90
2018-03-25T07:54:12.623Z,45.43
2018-03-25T07:56:38.931Z,42.53
2018-03-25T07:59:05.165Z,38.50
2018-03-25T08:01:45.258Z,56.00
2018-03-25T08:04:11.467Z,34.40
2018-03-25T08:06:45.628Z,43.10
2018-03-25T08:09:13.141Z,42.73
2018-03-25T08:11:41.271Z,36.50
2018-03-25T08:14:07.579Z,39.43
2018-03-25T08:19:50.290Z,41.33
2018-03-25T08:22:16.435Z,43.10
2018-03-25T08:24:42.733Z,37.50
2018-03-25T08:27:15.749Z,39.60
2018-03-25T08:32:45.553Z,40.30
2018-03-25T08:35:16.493Z,42.03
2018-03-25T08:37:42.721Z,35.77
2018-03-25T08:40:09.003Z,43.03
2018-03-25T08:42:45.841Z,37.40
2018-03-25T08:45:12.125Z,39.80
2018-03-25T08:47:38.275Z,37.60
2018-03-25T08:50:16.125Z,46.10
2018-03-25T08:52:43.401Z,38.70
2018-03-25T08:55:09.663Z,38.77
2018-03-25T08:57:45.446Z,37.13
2018-03-25T09:00:11.641Z,41.93
2018-03-25T09:02:45.192Z,38.57
2018-03-25T09:05:12.170Z,40.97
2018-03-25T09:07:38.418Z,40.47
2018-03-25T09:10:05.740Z,40.13
2018-03-25T09:12:32.051Z,39.20
2018-03-25T09:14:58.193Z,45.23
2018-03-25T09:17:24.336Z,46.07
2018-03-25T09:19:50.541Z,38.43
2018-03-25T09:22:18.749Z,44.03
2018-03-25T09:24:45.136Z,46.93
2018-03-25T09:27:11.275Z,40.70
2018-03-25T09:29:37.381Z,45.47
2018-03-25T09:32:04.759Z,44.07
2018-03-25T09:34:30.885Z,44.93
2018-03-25T09:36:57.809Z,43.27
2018-03-25T09:39:24.047Z,42.57
2018-03-25T09:41:50.260Z,46.87
2018-03-25T09:44:16.406Z,45.20
2018-03-25T09:46:43.138Z,42.03
2018-03-25T09:49:11.307Z,40.73
2018-03-25T09:51:37.555Z,52.10
2018-03-25T09:54:04.341Z,47.30
2018-03-25T10:02:50.894Z,40.40
2018-03-25T10:05:17.411Z,41.67
2018-03-25T10:07:43.644Z,44.87
2018-03-25T10:10:09.803Z,51.17
2018-03-25T10:12:36.010Z,45.50
2018-03-25T10:15:02.188Z,45.37
2018-03-25T10:17:29.051Z,40.80
2018-03-25T10:19:55.602Z,54.03
2018-03-25T10:22:21.773Z,48.30
2018-03-25T10:24:47.934Z,44.70
2018-03-25T10:27:14.290Z,42.63
2018-03-25T10:29:46.568Z,42.23
2018-03-25T10:32:16.512Z,43.40
2018-03-25T10:34:42.784Z,43.00
2018-03-25T10:37:15.694Z,43.30
2018-03-25T10:39:42.023Z,42.03
2018-03-25T10:42:08.240Z,47.23
2018-03-25T10:44:35.139Z,43.73
2018-03-25T10:47:01.284Z,42.20
2018-03-25T10:49:27.523Z,47.00
2018-03-25T10:54:45.010Z,41.10
2018-03-25T10:57:13.890Z,46.37
2018-03-25T10:59:40.164Z,47.23
2018-03-25T11:02:06.295Z,45.30
2018-03-25T11:04:32.401Z,41.97
2018-03-25T11:06:58.531Z,43.43
2018-03-25T11:09:25.423Z,41.57
2018-03-25T11:11:51.911Z,41.40
2018-03-25T11:14:18.272Z,39.83
2018-03-25T11:16:44.431Z,39.97
2018-03-25T11:19:10.543Z,40.20
2018-03-25T11:21:37.538Z,39.30
2018-03-25T11:24:03.983Z,38.20
2018-03-25T11:26:30.118Z,37.87
2018-03-25T11:28:56.280Z,48.47
2018-03-25T11:31:22.488Z,43.10
2018-03-25T11:33:48.627Z,43.37
2018-03-25T11:36:16.291Z,40.80
2018-03-25T11:38:43.096Z,38.67
2018-03-25T11:41:09.302Z,44.70
2018-03-25T11:43:35.579Z,41.50
2018-03-25T11:46:01.694Z,42.23
2018-03-25T11:48:27.891Z,39.63
2018-03-25T11:50:53.986Z,43.17
2018-03-25T11:53:20.152Z,39.30
2018-03-25T11:55:46.289Z,36.87
2018-03-25T11:58:12.395Z,37.17
2018-03-25T12:00:39.637Z,43.20
2018-03-25T12:03:05.998Z,40.07
2018-03-25T12:05:32.189Z,42.17
2018-03-25T12:08:00.569Z,41.03
2018-03-25T12:10:26.859Z,43.73
2018-03-25T12:12:53.048Z,37.10
2018-03-25T12:18:21.903Z,40.87
2018-03-25T12:20:48.865Z,46.90
2018-03-25T12:23:15.918Z,42.93
2018-03-25T12:25:43.816Z,38.83
2018-03-25T12:28:17.952Z,42.37
2018-03-25T12:30:44.490Z,41.63
2018-03-25T12:33:13.489Z,37.30
2018-03-25T12:35:40.431Z,42.47
2018-03-25T12:38:07.773Z,41.83
2018-03-25T12:40:34.752Z,43.93
2018-03-25T12:43:03.084Z,38.77
2018-03-25T12:45:37.094Z,38.87
2018-03-25T12:48:05.154Z,36.23
2018-03-25T12:50:33.276Z,38.40
2018-03-25T12:53:04.780Z,41.43
2018-03-25T12:55:31.560Z,42.20
2018-03-25T12:57:57.976Z,43.00
2018-03-25T13:00:24.570Z,33.27
2018-03-25T13:02:51.879Z,37.53
2018-03-25T13:05:18.428Z,37.10
2018-03-25T13:07:48.496Z,39.93
2018-03-25T13:10:17.524Z,39.53
2018-03-25T13:12:47.155Z,37.47
2018-03-25T13:15:13.396Z,39.10
2018-03-25T13:17:43.224Z,41.23
2018-03-25T13:20:09.746Z,40.33
2018-03-25T13:25:17.303Z,41.43
2018-03-25T13:27:47.882Z,39.80
2018-03-25T13:30:17.652Z,37.80
2018-03-25T13:32:47.116Z,42.73
2018-03-25T13:35:17.023Z,36.77
2018-03-25T13:37:49.707Z,39.43
2018-03-25T13:40:16.884Z,34.60
2018-03-25T13:42:43.225Z,44.03
2018-03-25T13:45:11.652Z,40.27
2018-03-25T13:47:38.667Z,37.87
2018-03-25T13:50:13.944Z,38.60
2018-03-25T13:52:47.915Z,43.47
2018-03-25T13:57:48.543Z,39.00
2018-03-25T14:06:20.636Z,31.57
2018-03-25T14:08:47.476Z,40.80
2018-03-25T14:11:13.935Z,35.27
2018-03-25T14:13:45.421Z,36.00
2018-03-25T14:16:16.490Z,37.67
2018-03-25T14:18:43.692Z,38.83
2018-03-25T14:21:20.182Z,35.50
2018-03-25T14:23:47.273Z,43.10
2018-03-25T14:26:24.673Z,38.00
2018-03-25T14:28:51.973Z,37.60
2018-03-25T14:31:20.599Z,42.00
2018-03-25T14:33:46.916Z,40.77
2018-03-25T14:36:14.961Z,39.30
2018-03-25T14:38:41.329Z,42.57
2018-03-25T14:41:07.652Z,40.33
2018-03-25T14:43:33.943Z,43.13
2018-03-25T14:46:00.165Z,46.70
2018-03-25T14:48:26.683Z,42.13
2018-03-25T14:50:53.728Z,36.83
2018-03-25T14:53:19.998Z,34.73
2018-03-25T14:55:47.064Z,36.83
2018-03-25T14:58:13.882Z,29.50
2018-03-25T15:00:41.608Z,41.60
2018-03-25T15:03:07.853Z,34.40
2018-03-25T15:05:34.093Z,42.73
2018-03-25T15:08:00.379Z,32.43
2018-03-25T15:10:27.272Z,36.27
2018-03-25T15:12:54.325Z,40.97
2018-03-25T15:15:20.594Z,34.03
2018-03-25T15:17:46.837Z,38.00
2018-03-25T15:20:13.024Z,35.33
2018-03-25T15:22:39.229Z,37.17
2018-03-25T15:25:05.801Z,40.00
2018-03-25T15:27:32.088Z,45.77
2018-03-25T15:43:47.696Z,36.47
2018-03-25T15:46:13.888Z,50.10
2018-03-25T15:48:40.019Z,45.20
2018-03-25T15:51:06.183Z,37.47
2018-03-25T15:53:32.443Z,43.97
2018-03-25T15:55:58.583Z,40.47
2018-03-25T16:40:17.229Z,55.83
2018-03-25T16:42:43.581Z,44.30
2018-03-25T16:45:17.362Z,44.20
2018-03-25T16:47:47.017Z,46.13
2018-03-25T16:50:13.254Z,51.40
2018-03-25T16:52:40.169Z,44.90
2018-03-25T16:55:06.486Z,46.33
2018-03-25T16:57:33.615Z,45.73
2018-03-25T16:59:59.800Z,50.50
2018-03-25T17:02:53.387Z,51.67
2018-03-25T17:05:19.597Z,44.87
2018-03-25T17:07:45.909Z,42.67
2018-03-25T17:13:15.899Z,59.77
2018-03-25T17:15:42.080Z,56.33
2018-03-25T17:18:08.327Z,50.90
2018-03-25T17:20:34.526Z,61.33
2018-03-25T17:23:07.036Z,51.40
2018-03-25T17:25:33.175Z,57.50
2018-03-25T17:28:12.384Z,55.30
2018-03-25T17:30:38.682Z,56.13
2018-03-25T17:33:04.832Z,56.63
2018-03-25T17:35:31.573Z,57.83
2018-03-25T17:37:59.124Z,56.00
2018-03-25T17:40:25.402Z,63.63
2018-03-25T17:42:51.491Z,58.23
2018-03-25T17:45:17.582Z,53.13
2018-03-25T17:47:43.684Z,59.97
2018-03-25T17:50:16.228Z,57.80
2018-03-25T17:52:43.083Z,60.97
2018-03-25T17:55:09.199Z,61.93
2018-03-25T17:57:35.292Z,62.03
2018-03-25T18:00:01.430Z,58.57
2018-03-25T18:02:33.579Z,61.27
2018-03-25T18:05:03.088Z,60.83
2018-03-25T18:07:29.979Z,63.23
2018-03-25T18:09:56.143Z,60.30
2018-03-25T18:12:23.007Z,55.53
2018-03-25T18:14:49.819Z,58.50
2018-03-25T18:17:33.461Z,63.43
2018-03-25T18:19:43.885Z,67.17
2018-03-25T18:22:10.173Z,59.63
2018-03-25T18:24:37.077Z,65.17
2018-03-25T18:27:03.217Z,69.50
2018-03-25T18:29:29.773Z,64.27
2018-03-25T18:31:57.384Z,70.93
2018-03-25T18:34:23.616Z,62.83
2018-03-25T18:36:50.486Z,73.43
2018-03-25T18:39:17.387Z,69.17
2018-03-25T18:41:45.649Z,62.37
2018-03-25T18:44:12.350Z,75.77
2018-03-25T18:46:38.555Z,68.20
2018-03-25T18:49:04.721Z,71.40
2018-03-25T18:51:35.868Z,73.23
2018-03-25T18:54:20.151Z,73.30
2018-03-25T18:56:47.375Z,66.30
2018-03-25T18:59:16.248Z,66.03
2018-03-25T19:01:45.122Z,69.20
2018-03-25T19:04:11.717Z,69.13
2018-03-25T19:06:37.900Z,77.60
2018-03-25T19:09:04.122Z,74.30
2018-03-25T19:11:30.779Z,75.23
2018-03-25T19:13:58.942Z,68.83
2018-03-25T19:19:00.833Z,66.70
2018-03-25T19:21:27.714Z,62.90
2018-03-25T19:23:54.422Z,61.50
2018-03-25T19:26:20.551Z,74.53
2018-03-25T19:28:46.836Z,71.37
2018-03-25T19:31:14.693Z,75.60
2018-03-25T19:33:42.337Z,73.33
2018-03-25T19:36:09.320Z,73.63
2018-03-25T19:38:35.568Z,78.23
2018-03-25T19:41:02.057Z,78.27
2018-03-25T19:43:34.174Z,74.90
2018-03-25T19:46:04.245Z,71.60
2018-03-25T19:48:37.961Z,68.90
2018-03-25T19:51:18.673Z,65.63
2018-03-25T19:53:47.866Z,74.30
2018-03-25T19:56:16.308Z,77.63
2018-03-25T19:58:50.008Z,70.93
2018-03-25T20:01:16.991Z,78.83
2018-03-25T20:03:45.913Z,77.57
2018-03-25T20:06:13.357Z,78.03
2018-03-25T20:08:46.581Z,78.03
2018-03-25T20:11:16.237Z,79.63
2018-03-25T20:13:45.349Z,80.60
2018-03-25T20:16:11.901Z,89.10
2018-03-25T20:18:38.338Z,87.00
2018-03-25T20:21:05.490Z,90.90
2018-03-25T20:23:31.910Z,87.23
2018-03-25T20:25:58.161Z,76.50
2018-03-25T20:28:25.179Z,83.10
2018-03-25T20:30:51.320Z,72.07
2018-03-25T20:33:17.489Z,81.17
2018-03-25T20:35:44.796Z,75.63
2018-03-25T20:38:11.335Z,69.10
2018-03-25T20:40:37.573Z,76.47
2018-03-25T20:43:03.897Z,75.33
2018-03-25T20:45:30.114Z,88.30
2018-03-25T20:47:57.243Z,76.30
2018-03-25T20:50:23.495Z,72.83
2018-03-25T20:52:49.733Z,74.77
2018-03-25T20:55:16.464Z,75.33
2018-03-25T20:57:43.201Z,68.53
2018-03-25T21:00:09.448Z,73.73
2018-03-25T21:02:35.618Z,77.63
2018-03-25T21:05:02.101Z,76.30
2018-03-25T21:07:28.584Z,67.57
2018-03-25T21:09:55.629Z,78.77
2018-03-25T21:12:21.911Z,74.00
2018-03-25T21:14:48.751Z,80.80
2018-03-25T21:17:15.567Z,85.00
2018-03-25T21:19:42.907Z,82.87
2018-03-25T21:22:10.195Z,76.43
2018-03-25T21:24:36.607Z,81.17
2018-03-25T21:27:03.138Z,79.93
2018-03-25T21:29:29.667Z,89.03
2018-03-25T21:31:55.960Z,85.73
2018-03-25T21:34:22.345Z,80.20
2018-03-25T21:36:49.368Z,82.97
2018-03-25T21:39:15.798Z,72.63
2018-03-25T21:41:41.995Z,84.83
2018-03-25T21:44:08.950Z,80.43
2018-03-25T21:46:35.836Z,80.47
2018-03-25T21:49:02.867Z,87.23
2018-03-25T21:51:29.065Z,75.73
2018-03-25T21:53:55.416Z,85.73
2018-03-25T21:56:21.571Z,77.93
2018-03-25T21:58:48.227Z,86.93
2018-03-25T22:01:14.791Z,73.37
2018-03-25T22:03:41.227Z,80.90
2018-03-25T22:06:07.866Z,71.60
2018-03-25T22:08:34.382Z,77.33
2018-03-25T22:11:03.607Z,81.20
2018-03-25T22:13:29.960Z,84.47
2018-03-25T22:15:56.619Z,81.53
2018-03-25T22:18:30.389Z,70.57
2018-03-25T22:20:57.298Z,76.77
2018-03-25T22:23:25.837Z,74.37
2018-03-25T22:25:52.827Z,86.37
2018-03-25T22:28:18.991Z,77.60
2018-03-25T22:30:45.277Z,76.57
2018-03-25T22:33:11.497Z,72.63
2018-03-25T22:35:38.451Z,68.20
2018-03-25T22:38:05.428Z,66.53
2018-03-25T22:40:31.609Z,82.10
2018-03-25T22:42:57.801Z,71.90
2018-03-25T22:45:24.022Z,71.77
2018-03-25T22:47:50.590Z,71.87
2018-03-25T22:50:16.751Z,63.70
2018-03-25T22:52:43.622Z,64.67
2018-03-25T22:55:10.561Z,65.07
2018-03-25T22:57:36.807Z,67.40
2018-03-25T23:00:03.184Z,76.07
2018-03-25T23:02:29.479Z,69.80
2018-03-25T23:04:55.711Z,70.17
2018-03-25T23:07:22.640Z,68.60
2018-03-25T23:09:50.007Z,64.00
2018-03-25T23:12:17.004Z,62.53
2018-03-25T23:14:43.278Z,62.47
2018-03-25T23:17:09.585Z,79.83
2018-03-25T23:19:35.789Z,69.50
2018-03-25T23:22:02.044Z,78.97
2018-03-25T23:24:28.210Z,78.43
2018-03-25T23:26:54.368Z,76.00
2018-03-25T23:29:20.505Z,70.60
2018-03-25T23:31:46.616Z,81.33
2018-03-25T23:34:13.557Z,84.67
2018-03-25T23:36:39.752Z,80.07
2018-03-25T23:39:05.870Z,74.93
2018-03-25T23:41:32.057Z,79.20
2018-03-25T23:43:59.071Z,73.17
2018-03-25T23:46:25.268Z,77.43
2018-03-25T23:48:51.502Z,65.33
2018-03-25T23:51:17.654Z,73.80
2018-03-25T23:53:43.799Z,73.93
2018-03-25T23:56:09.946Z,80.70
2018-03-25T23:58:36.928Z,74.60
